Time;durP1;ratioP1;P1;durP2;ratioP2;P2;SDS_P1;SDS_P2;PMS_P1;PMS_P2;Temp;Humidity;BMP_temperature;BMP_pressure;BME280_temperature;BME280_humidity;BME280_pressure;Samples;Min_cycle;Max_cycle;Signal;HPM_P1;HPM_P2
2021/03/03 00:01:00;;;;;;;27.52;19.40;;;;;;;;;;5108486;28;20239;-42
2021/03/03 00:03:25;;;;;;;33.70;22.45;;;;;;;;;;5110132;28;20177;-41
2021/03/03 00:05:50;;;;;;;31.63;20.53;;;;;;;;;;5108987;28;20557;-42
2021/03/03 00:08:15;;;;;;;32.22;20.10;;;;;;;;;;5109771;28;20176;-42
2021/03/03 00:10:40;;;;;;;30.38;18.92;;;;;;;;;;5110023;28;20187;-42
2021/03/03 00:13:06;;;;;;;35.20;20.67;;;;;;;;;;5110131;28;20196;-39
2021/03/03 00:15:31;;;;;;;31.70;20.48;;;;;;;;;;5100640;28;20212;-40
2021/03/03 00:17:56;;;;;;;31.25;21.13;;;;;;;;;;5095852;28;20234;-42
2021/03/03 00:20:21;;;;;;;33.20;20.95;;;;;;;;;;5106358;28;20166;-41
2021/03/03 00:22:46;;;;;;;30.73;19.73;;;;;;;;;;5109811;27;20207;-42
2021/03/03 00:25:12;;;;;;;29.17;19.65;;;;;;;;;;5110375;28;20700;-41
2021/03/03 00:27:37;;;;;;;32.10;20.50;;;;;;;;;;5108885;28;20199;-42
2021/03/03 00:30:02;;;;;;;28.47;20.50;;;;;;;;;;5109372;28;20195;-41
2021/03/03 00:32:27;;;;;;;31.20;19.90;;;;;;;;;;5101433;28;20214;-42
2021/03/03 00:34:53;;;;;;;29.83;21.17;;;;;;;;;;5109331;28;20245;-41
2021/03/03 00:37:18;;;;;;;35.67;20.77;;;;;;;;;;5108296;27;20664;-41
2021/03/03 00:39:43;;;;;;;34.13;20.40;;;;;;;;;;5104086;27;20228;-41
2021/03/03 00:42:08;;;;;;;29.80;20.00;;;;;;;;;;5109952;28;20536;-41
2021/03/03 00:44:33;;;;;;;29.20;20.10;;;;;;;;;;5109051;28;20185;-41
2021/03/03 00:46:58;;;;;;;28.83;18.00;;;;;;;;;;5109342;28;20642;-41
2021/03/03 00:49:24;;;;;;;29.80;20.03;;;;;;;;;;5109168;28;20236;-41
2021/03/03 00:51:49;;;;;;;29.50;19.23;;;;;;;;;;5106042;28;20694;-41
2021/03/03 00:54:14;;;;;;;27.25;19.42;;;;;;;;;;5109850;28;20177;-41
2021/03/03 00:56:39;;;;;;;27.90;19.27;;;;;;;;;;5109506;28;20233;-41
2021/03/03 00:59:04;;;;;;;28.10;19.13;;;;;;;;;;5109595;28;20231;-41
2021/03/03 01:01:30;;;;;;;30.33;18.67;;;;;;;;;;5105615;28;20538;-41
2021/03/03 01:03:55;;;;;;;28.10;18.40;;;;;;;;;;5108888;28;20268;-41
2021/03/03 01:06:20;;;;;;;34.03;19.45;;;;;;;;;;5107790;28;20184;-41
2021/03/03 01:08:45;;;;;;;29.30;19.17;;;;;;;;;;5109320;28;20200;-41
2021/03/03 01:11:10;;;;;;;30.55;20.48;;;;;;;;;;5109973;28;20202;-41
2021/03/03 01:13:36;;;;;;;28.33;19.00;;;;;;;;;;5107809;28;20691;-41
2021/03/03 01:16:02;;;;;;;28.77;18.80;;;;;;;;;;5109951;28;20233;-41
2021/03/03 01:18:27;;;;;;;29.73;19.53;;;;;;;;;;5103883;28;20591;-42
2021/03/03 01:20:52;;;;;;;26.88;17.10;;;;;;;;;;5105529;28;20634;-42
2021/03/03 01:23:17;;;;;;;27.38;18.55;;;;;;;;;;5109488;28;20204;-42
2021/03/03 01:25:42;;;;;;;30.77;19.47;;;;;;;;;;5109441;28;20176;-42
2021/03/03 01:28:09;;;;;;;31.48;20.13;;;;;;;;;;5115720;28;20177;-41
2021/03/03 01:30:34;;;;;;;29.97;20.67;;;;;;;;;;5102807;28;20175;-41
2021/03/03 01:32:59;;;;;;;29.70;19.33;;;;;;;;;;5107130;28;20951;-41
2021/03/03 01:35:25;;;;;;;29.77;18.00;;;;;;;;;;5088835;28;20662;-41
2021/03/03 01:37:50;;;;;;;29.57;18.77;;;;;;;;;;5108169;28;20183;-41
2021/03/03 01:40:15;;;;;;;30.58;19.50;;;;;;;;;;5109616;28;20281;-41
2021/03/03 01:42:40;;;;;;;26.57;18.67;;;;;;;;;;5108740;28;20746;-41
2021/03/03 01:45:06;;;;;;;29.15;20.42;;;;;;;;;;5108393;28;20845;-41
2021/03/03 01:47:31;;;;;;;29.50;19.23;;;;;;;;;;5109173;28;20183;-41
2021/03/03 01:49:56;;;;;;;30.57;20.00;;;;;;;;;;5108080;28;20259;-41
2021/03/03 01:52:22;;;;;;;26.93;19.13;;;;;;;;;;5108482;28;20929;-41
2021/03/03 01:54:47;;;;;;;30.37;19.10;;;;;;;;;;5109121;28;20196;-41
2021/03/03 01:57:12;;;;;;;25.75;18.65;;;;;;;;;;5112209;28;20613;-41
2021/03/03 01:59:37;;;;;;;24.30;17.30;;;;;;;;;;5111781;28;20170;-41
2021/03/03 02:02:03;;;;;;;27.20;18.00;;;;;;;;;;5110998;28;20220;-42
2021/03/03 02:04:28;;;;;;;27.10;17.87;;;;;;;;;;5112765;28;20236;-41
2021/03/03 02:07:12;;;;;;;24.30;17.00;;;;;;;;;;5110605;28;20701;-41
2021/03/03 02:09:45;;;;;;;22.97;16.20;;;;;;;;;;5112346;28;20566;-41
2021/03/03 02:12:16;;;;;;;27.03;18.47;;;;;;;;;;5112396;28;20602;-41
2021/03/03 02:14:43;;;;;;;26.00;16.23;;;;;;;;;;5111831;28;20611;-41
2021/03/03 02:17:09;;;;;;;25.13;17.37;;;;;;;;;;5110867;28;21014;-41
2021/03/03 02:19:36;;;;;;;29.53;17.80;;;;;;;;;;5111720;28;20606;-41
2021/03/03 02:22:04;;;;;;;25.27;16.87;;;;;;;;;;5110176;28;20649;-41
2021/03/03 02:24:31;;;;;;;23.03;16.07;;;;;;;;;;5111372;28;21027;-41
2021/03/03 02:26:57;;;;;;;26.33;17.37;;;;;;;;;;5111720;28;20659;-41
2021/03/03 02:29:29;;;;;;;23.67;16.93;;;;;;;;;;5111777;28;20604;-42
2021/03/03 02:31:55;;;;;;;28.57;17.27;;;;;;;;;;5105922;28;21073;-42
2021/03/03 02:34:21;;;;;;;26.17;17.93;;;;;;;;;;5110580;28;20686;-42
2021/03/03 02:36:46;;;;;;;22.83;16.50;;;;;;;;;;5107759;28;20646;-42
2021/03/03 02:39:12;;;;;;;23.37;16.83;;;;;;;;;;5110064;28;20618;-41
2021/03/03 02:41:37;;;;;;;25.40;17.90;;;;;;;;;;5111768;28;20179;-40
2021/03/03 02:44:04;;;;;;;25.40;16.83;;;;;;;;;;5111101;28;20637;-41
2021/03/03 02:46:30;;;;;;;23.40;17.10;;;;;;;;;;5094254;28;20228;-41
2021/03/03 02:48:56;;;;;;;27.13;18.07;;;;;;;;;;5097323;28;20626;-40
2021/03/03 02:51:21;;;;;;;24.50;16.93;;;;;;;;;;5102864;28;21210;-42
2021/03/03 02:53:46;;;;;;;25.63;17.37;;;;;;;;;;5114397;27;20210;-41
2021/03/03 02:56:11;;;;;;;26.20;17.97;;;;;;;;;;5111114;28;20878;-42
2021/03/03 02:58:37;;;;;;;24.73;16.17;;;;;;;;;;5110923;28;20181;-41
2021/03/03 03:01:03;;;;;;;25.60;15.67;;;;;;;;;;5103336;28;20601;-41
2021/03/03 03:03:33;;;;;;;26.03;17.40;;;;;;;;;;5096560;28;20678;-41
2021/03/03 03:06:05;;;;;;;23.80;16.93;;;;;;;;;;5107287;28;20603;-41
2021/03/03 03:08:31;;;;;;;28.37;18.83;;;;;;;;;;5110878;28;21111;-41
2021/03/03 03:11:00;;;;;;;25.20;17.20;;;;;;;;;;5110918;27;20679;-41
2021/03/03 03:13:27;;;;;;;27.53;17.40;;;;;;;;;;5111355;28;20593;-41
2021/03/03 03:15:52;;;;;;;26.60;18.03;;;;;;;;;;5108720;28;20649;-41
2021/03/03 03:18:18;;;;;;;24.23;17.67;;;;;;;;;;5094441;28;20656;-41
2021/03/03 03:20:44;;;;;;;26.13;17.63;;;;;;;;;;5106722;28;20255;-41
2021/03/03 03:23:10;;;;;;;25.03;16.43;;;;;;;;;;5112727;27;20692;-41
2021/03/03 03:25:38;;;;;;;28.60;16.67;;;;;;;;;;5110664;28;20229;-41
2021/03/03 03:28:03;;;;;;;23.83;16.47;;;;;;;;;;5114180;27;20607;-41
2021/03/03 03:30:29;;;;;;;25.47;17.47;;;;;;;;;;5108217;28;20727;-41
2021/03/03 03:32:56;;;;;;;27.83;16.80;;;;;;;;;;5099425;28;20205;-41
2021/03/03 03:35:21;;;;;;;24.03;16.23;;;;;;;;;;5104308;28;20202;-41
2021/03/03 03:37:46;;;;;;;23.17;16.20;;;;;;;;;;5109954;28;21146;-41
2021/03/03 03:40:11;;;;;;;23.10;15.77;;;;;;;;;;5110138;28;20241;-41
2021/03/03 03:42:38;;;;;;;23.57;16.73;;;;;;;;;;5110789;28;20191;-41
2021/03/03 03:45:04;;;;;;;24.87;16.60;;;;;;;;;;5111445;27;20632;-42
2021/03/03 03:47:29;;;;;;;23.03;15.70;;;;;;;;;;5109699;28;20677;-42
2021/03/03 03:49:55;;;;;;;26.60;17.60;;;;;;;;;;5108439;28;21181;-42
2021/03/03 03:52:20;;;;;;;24.47;16.07;;;;;;;;;;5107284;28;20184;-41
2021/03/03 03:54:49;;;;;;;22.90;15.95;;;;;;;;;;5110359;28;20624;-42
2021/03/03 03:57:14;;;;;;;21.93;15.57;;;;;;;;;;5110571;28;20216;-41
2021/03/03 03:59:39;;;;;;;24.77;17.90;;;;;;;;;;5109454;28;21147;-41
2021/03/03 04:02:04;;;;;;;23.15;16.83;;;;;;;;;;5105051;28;20181;-41
2021/03/03 04:04:29;;;;;;;23.70;16.25;;;;;;;;;;5100006;28;20216;-42
2021/03/03 04:06:55;;;;;;;28.73;16.80;;;;;;;;;;5103119;28;20186;-41
2021/03/03 04:09:20;;;;;;;23.70;16.17;;;;;;;;;;5110366;28;20538;-41
2021/03/03 04:11:45;;;;;;;24.85;15.40;;;;;;;;;;5109954;28;20181;-41
2021/03/03 04:14:10;;;;;;;28.42;18.30;;;;;;;;;;5109469;28;20176;-41
2021/03/03 04:16:35;;;;;;;28.33;17.42;;;;;;;;;;5099655;28;20633;-41
2021/03/03 04:19:00;;;;;;;25.00;16.90;;;;;;;;;;5108588;28;20180;-41
2021/03/03 04:21:26;;;;;;;26.53;16.43;;;;;;;;;;5107547;28;20665;-41
2021/03/03 04:23:51;;;;;;;26.70;17.42;;;;;;;;;;5110091;28;20179;-41
2021/03/03 04:26:16;;;;;;;26.97;17.37;;;;;;;;;;5104221;28;20703;-41
2021/03/03 04:28:41;;;;;;;22.52;16.23;;;;;;;;;;5106776;28;20174;-41
2021/03/03 04:31:06;;;;;;;24.35;16.77;;;;;;;;;;5107329;28;20191;-41
2021/03/03 04:33:32;;;;;;;27.30;17.40;;;;;;;;;;5102204;28;20584;-41
2021/03/03 04:35:57;;;;;;;24.27;16.73;;;;;;;;;;5108648;28;20228;-41
2021/03/03 04:38:22;;;;;;;25.93;17.23;;;;;;;;;;5103132;28;20270;-41
2021/03/03 04:40:47;;;;;;;24.50;15.60;;;;;;;;;;5106397;28;20335;-41
2021/03/03 04:43:12;;;;;;;25.63;16.90;;;;;;;;;;5106934;28;20174;-41
2021/03/03 04:45:37;;;;;;;25.23;16.60;;;;;;;;;;5106440;28;20256;-41
2021/03/03 04:48:03;;;;;;;28.45;16.73;;;;;;;;;;5106116;28;20192;-41
2021/03/03 04:50:28;;;;;;;26.63;17.70;;;;;;;;;;5103187;28;20548;-41
2021/03/03 04:52:53;;;;;;;25.40;16.93;;;;;;;;;;5102448;28;20186;-41
2021/03/03 04:55:18;;;;;;;25.00;16.83;;;;;;;;;;5101613;28;20844;-41
2021/03/03 04:57:44;;;;;;;28.30;17.40;;;;;;;;;;5105996;28;20212;-41
2021/03/03 05:00:09;;;;;;;28.17;17.20;;;;;;;;;;5105162;28;20669;-41
2021/03/03 05:02:34;;;;;;;23.60;17.40;;;;;;;;;;5105526;28;20262;-41
2021/03/03 05:04:59;;;;;;;22.13;15.40;;;;;;;;;;5105925;28;20203;-41
2021/03/03 05:07:25;;;;;;;22.63;16.75;;;;;;;;;;5104785;28;20187;-41
2021/03/03 05:09:50;;;;;;;28.20;18.20;;;;;;;;;;5107062;28;20306;-41
2021/03/03 05:12:15;;;;;;;27.67;17.83;;;;;;;;;;5105666;28;20224;-40
2021/03/03 05:14:40;;;;;;;26.23;16.65;;;;;;;;;;5101069;28;20262;-41
2021/03/03 05:17:05;;;;;;;26.60;17.40;;;;;;;;;;5088860;28;20202;-40
2021/03/03 05:19:30;;;;;;;31.67;18.08;;;;;;;;;;5105920;28;20206;-45
2021/03/03 05:21:56;;;;;;;27.20;17.13;;;;;;;;;;5107710;28;20192;-41
2021/03/03 05:24:21;;;;;;;25.00;17.20;;;;;;;;;;5110555;28;20176;-41
2021/03/03 05:26:46;;;;;;;29.33;18.63;;;;;;;;;;5100188;28;20548;-41
2021/03/03 05:29:11;;;;;;;29.73;18.90;;;;;;;;;;5106104;28;20184;-40
2021/03/03 05:31:36;;;;;;;28.00;17.50;;;;;;;;;;5110205;28;20225;-40
2021/03/03 05:34:02;;;;;;;30.87;19.60;;;;;;;;;;5111971;28;20175;-40
2021/03/03 05:36:27;;;;;;;26.20;17.57;;;;;;;;;;5107541;28;20268;-41
2021/03/03 05:38:52;;;;;;;30.50;18.10;;;;;;;;;;5102706;28;20198;-42
2021/03/03 05:41:20;;;;;;;29.27;17.83;;;;;;;;;;5109749;28;20226;-41
2021/03/03 05:43:46;;;;;;;29.57;18.60;;;;;;;;;;5100327;28;20172;-41
2021/03/03 05:46:12;;;;;;;27.00;17.90;;;;;;;;;;5105302;28;20638;-41
2021/03/03 05:48:40;;;;;;;26.37;19.00;;;;;;;;;;5103972;28;20690;-41
2021/03/03 05:51:06;;;;;;;24.43;17.13;;;;;;;;;;5089500;28;20597;-41
2021/03/03 05:53:31;;;;;;;26.53;18.03;;;;;;;;;;5102022;27;20609;-39
2021/03/03 05:55:57;;;;;;;26.00;17.73;;;;;;;;;;5109348;28;20195;-39
2021/03/03 05:58:23;;;;;;;26.83;17.37;;;;;;;;;;5100130;27;20171;-40
2021/03/03 06:00:49;;;;;;;29.10;17.77;;;;;;;;;;5102975;28;20175;-40
2021/03/03 06:03:15;;;;;;;28.03;18.83;;;;;;;;;;5093336;28;20635;-40
2021/03/03 06:05:40;;;;;;;30.87;19.00;;;;;;;;;;5105618;28;21068;-40
2021/03/03 06:08:06;;;;;;;27.00;17.53;;;;;;;;;;5100264;28;20595;-40
2021/03/03 06:10:31;;;;;;;24.80;16.93;;;;;;;;;;5112067;27;20204;-40
2021/03/03 06:12:56;;;;;;;29.88;19.33;;;;;;;;;;5105146;27;20176;-40
2021/03/03 06:15:21;;;;;;;27.70;17.73;;;;;;;;;;5109522;28;20166;-40
2021/03/03 06:17:47;;;;;;;27.53;18.37;;;;;;;;;;5109182;27;20563;-42
2021/03/03 06:20:12;;;;;;;28.73;17.63;;;;;;;;;;5112488;28;20172;-41
2021/03/03 06:22:37;;;;;;;25.20;18.17;;;;;;;;;;5099213;28;20674;-42
2021/03/03 06:25:15;;;;;;;31.17;18.67;;;;;;;;;;5100108;28;20174;-41
2021/03/03 06:27:40;;;;;;;27.20;19.00;;;;;;;;;;5103908;27;20219;-41
2021/03/03 06:30:07;;;;;;;25.48;16.77;;;;;;;;;;5111777;28;20611;-41
2021/03/03 06:32:49;;;;;;;27.63;18.23;;;;;;;;;;5111505;28;20180;-41
2021/03/03 06:35:14;;;;;;;31.23;16.33;;;;;;;;;;5111986;28;20639;-41
2021/03/03 06:37:52;;;;;;;27.33;17.13;;;;;;;;;;5117672;27;20641;-41
2021/03/03 06:40:18;;;;;;;24.43;16.17;;;;;;;;;;5132290;27;20225;-40
2021/03/03 06:42:43;;;;;;;30.03;17.33;;;;;;;;;;5130824;27;20696;-41
2021/03/03 06:45:08;;;;;;;21.83;14.75;;;;;;;;;;5131952;27;20264;-41
2021/03/03 06:47:45;;;;;;;31.53;17.23;;;;;;;;;;5130281;27;20201;-41
2021/03/03 06:50:12;;;;;;;28.20;15.27;;;;;;;;;;5132190;27;20174;-41
2021/03/03 06:52:41;;;;;;;30.43;16.60;;;;;;;;;;5131986;27;20601;-41
2021/03/03 06:55:06;;;;;;;23.03;17.00;;;;;;;;;;5131934;27;20574;-41
2021/03/03 06:57:32;;;;;;;24.87;16.63;;;;;;;;;;5125570;27;20642;-41
2021/03/03 06:59:57;;;;;;;26.60;17.30;;;;;;;;;;5111935;27;20199;-42
2021/03/03 07:02:28;;;;;;;26.77;16.85;;;;;;;;;;5110837;28;20260;-41
2021/03/03 07:04:57;;;;;;;24.77;16.93;;;;;;;;;;5099152;27;20177;-41
2021/03/03 07:07:23;;;;;;;22.47;15.53;;;;;;;;;;5105026;28;20594;-41
2021/03/03 07:09:58;;;;;;;27.97;17.40;;;;;;;;;;5115869;27;21029;-41
2021/03/03 07:12:29;;;;;;;23.77;16.33;;;;;;;;;;5104763;27;20221;-41
2021/03/03 07:14:58;;;;;;;22.33;15.90;;;;;;;;;;5100923;28;20595;-41
2021/03/03 07:17:24;;;;;;;29.33;17.40;;;;;;;;;;5096488;28;21278;-41
2021/03/03 07:19:58;;;;;;;24.43;15.80;;;;;;;;;;5100275;27;20598;-41
2021/03/03 07:22:31;;;;;;;24.83;16.87;;;;;;;;;;5108165;28;20660;-41
2021/03/03 07:24:58;;;;;;;27.50;17.10;;;;;;;;;;5108025;28;21139;-41
2021/03/03 07:27:24;;;;;;;23.20;16.77;;;;;;;;;;5111639;27;20597;-42
2021/03/03 07:29:50;;;;;;;22.07;15.17;;;;;;;;;;5123171;27;20641;-42
2021/03/03 07:32:16;;;;;;;27.97;17.30;;;;;;;;;;5108020;28;20587;-41
2021/03/03 07:34:43;;;;;;;25.70;17.80;;;;;;;;;;5085308;28;21135;-42
2021/03/03 07:37:08;;;;;;;24.27;17.33;;;;;;;;;;5098595;28;20626;-42
2021/03/03 07:39:36;;;;;;;24.90;15.87;;;;;;;;;;5100780;27;20970;-41
2021/03/03 07:42:01;;;;;;;22.70;15.73;;;;;;;;;;5096487;27;20983;-41
2021/03/03 07:44:27;;;;;;;25.80;17.00;;;;;;;;;;5095073;27;21152;-41
2021/03/03 07:46:52;;;;;;;24.90;16.83;;;;;;;;;;5090970;28;20221;-41
2021/03/03 07:49:21;;;;;;;24.47;16.80;;;;;;;;;;5101494;27;21168;-41
2021/03/03 07:51:47;;;;;;;25.03;16.43;;;;;;;;;;5094088;28;20584;-41
2021/03/03 07:54:12;;;;;;;20.43;15.83;;;;;;;;;;5106995;28;20611;-41
2021/03/03 07:56:37;;;;;;;22.73;15.80;;;;;;;;;;5099865;28;20643;-41
2021/03/03 07:59:04;;;;;;;25.90;17.40;;;;;;;;;;5123284;27;20229;-41
2021/03/03 08:01:30;;;;;;;21.50;15.30;;;;;;;;;;5104216;27;20229;-41
2021/03/03 08:03:56;;;;;;;22.90;16.00;;;;;;;;;;5100013;28;21011;-42
2021/03/03 08:06:35;;;;;;;23.60;15.70;;;;;;;;;;5108292;28;20174;-42
2021/03/03 08:09:06;;;;;;;23.63;15.90;;;;;;;;;;5102202;28;20184;-42
2021/03/03 08:11:32;;;;;;;21.60;15.80;;;;;;;;;;5091074;28;20596;-42
2021/03/03 08:13:57;;;;;;;20.83;15.60;;;;;;;;;;5103173;27;20599;-41
2021/03/03 08:16:22;;;;;;;20.37;15.87;;;;;;;;;;5094481;28;20650;-42
2021/03/03 08:18:47;;;;;;;26.73;15.50;;;;;;;;;;5095565;28;20531;-41
2021/03/03 08:21:13;;;;;;;25.52;17.27;;;;;;;;;;5099765;28;20935;-41
2021/03/03 08:23:45;;;;;;;25.58;16.60;;;;;;;;;;5106947;27;20710;-42
2021/03/03 08:26:16;;;;;;;22.83;17.20;;;;;;;;;;5111921;27;20177;-41
2021/03/03 08:28:42;;;;;;;22.73;17.20;;;;;;;;;;5100595;28;21181;-41
2021/03/03 08:31:13;;;;;;;19.80;15.43;;;;;;;;;;5094112;28;20597;-42
2021/03/03 08:33:42;;;;;;;20.33;15.40;;;;;;;;;;5103930;28;20202;-41
2021/03/03 08:36:11;;;;;;;25.63;18.00;;;;;;;;;;5103690;28;20635;-41
2021/03/03 08:38:36;;;;;;;21.10;15.67;;;;;;;;;;5099724;28;20669;-42
2021/03/03 08:41:21;;;;;;;20.87;15.13;;;;;;;;;;5103252;28;20628;-42
2021/03/03 08:43:47;;;;;;;22.23;16.67;;;;;;;;;;5085536;28;20189;-42
2021/03/03 08:46:15;;;;;;;18.50;15.87;;;;;;;;;;5088873;28;20652;-40
2021/03/03 08:48:40;;;;;;;24.10;17.07;;;;;;;;;;5088788;28;20179;-41
2021/03/03 08:51:20;;;;;;;24.67;17.52;;;;;;;;;;5093028;28;20988;-41
2021/03/03 08:53:49;;;;;;;26.27;17.80;;;;;;;;;;5129770;28;20173;-41
2021/03/03 08:56:32;;;;;;;24.93;17.77;;;;;;;;;;5129833;28;20698;-41
2021/03/03 08:58:58;;;;;;;22.33;16.97;;;;;;;;;;5111564;28;20621;-41
2021/03/03 09:01:43;;;;;;;22.00;17.13;;;;;;;;;;5110141;28;21118;-41
2021/03/03 09:04:08;;;;;;;22.63;18.30;;;;;;;;;;5088606;28;20180;-41
2021/03/03 09:06:33;;;;;;;21.17;16.57;;;;;;;;;;5092858;28;20583;-41
2021/03/03 09:08:59;;;;;;;29.57;17.80;;;;;;;;;;5092947;28;20202;-41
2021/03/03 09:11:24;;;;;;;22.10;17.40;;;;;;;;;;5092851;28;20532;-40
2021/03/03 09:13:53;;;;;;;21.00;16.13;;;;;;;;;;5125296;27;20180;-41
2021/03/03 09:16:19;;;;;;;22.07;17.20;;;;;;;;;;5134000;27;20207;-41
2021/03/03 09:18:44;;;;;;;22.67;17.40;;;;;;;;;;5133358;27;20668;-41
2021/03/03 09:21:10;;;;;;;22.92;18.15;;;;;;;;;;5133806;27;20180;-41
2021/03/03 09:23:36;;;;;;;20.53;15.57;;;;;;;;;;5132131;27;20178;-40
2021/03/03 09:26:01;;;;;;;21.93;16.70;;;;;;;;;;5133657;27;20666;-41
2021/03/03 09:28:42;;;;;;;21.83;18.27;;;;;;;;;;5130036;27;20184;-41
2021/03/03 09:31:08;;;;;;;21.10;17.40;;;;;;;;;;5133555;27;20174;-41
2021/03/03 09:33:33;;;;;;;28.00;18.90;;;;;;;;;;5131801;27;20945;-41
2021/03/03 09:35:59;;;;;;;27.83;18.30;;;;;;;;;;5133149;27;20595;-42
2021/03/03 09:38:24;;;;;;;25.60;19.00;;;;;;;;;;5133438;27;20581;-40
2021/03/03 09:40:50;;;;;;;22.10;17.73;;;;;;;;;;5133199;27;20745;-41
2021/03/03 09:43:15;;;;;;;22.37;18.00;;;;;;;;;;5121885;27;20170;-40
2021/03/03 09:45:40;;;;;;;21.67;17.83;;;;;;;;;;5112748;28;20249;-40
2021/03/03 09:48:06;;;;;;;21.52;17.42;;;;;;;;;;5112139;28;20193;-41
2021/03/03 09:50:33;;;;;;;20.77;16.47;;;;;;;;;;5113832;27;20181;-41
2021/03/03 09:52:58;;;;;;;21.13;16.80;;;;;;;;;;5133172;27;20176;-41
2021/03/03 09:55:25;;;;;;;23.37;17.80;;;;;;;;;;5133002;27;20593;-41
2021/03/03 09:57:51;;;;;;;20.90;16.97;;;;;;;;;;5124704;27;20206;-42
2021/03/03 10:00:17;;;;;;;21.43;18.00;;;;;;;;;;5112510;28;20584;-42
2021/03/03 10:02:47;;;;;;;23.77;16.87;;;;;;;;;;5112428;28;20584;-42
2021/03/03 10:05:16;;;;;;;21.30;16.40;;;;;;;;;;5112694;28;20570;-43
2021/03/03 10:07:47;;;;;;;20.50;17.07;;;;;;;;;;5113177;27;20609;-42
2021/03/03 10:10:16;;;;;;;23.90;18.03;;;;;;;;;;5112480;28;20586;-41
2021/03/03 10:12:41;;;;;;;22.40;18.53;;;;;;;;;;5111820;28;20601;-41
2021/03/03 10:15:10;;;;;;;21.23;17.10;;;;;;;;;;5112137;28;20592;-40
2021/03/03 10:17:43;;;;;;;19.77;16.77;;;;;;;;;;5111318;28;20254;-41
2021/03/03 10:20:27;;;;;;;21.00;16.40;;;;;;;;;;5130721;27;20588;-41
2021/03/03 10:22:53;;;;;;;19.90;16.57;;;;;;;;;;5132330;27;20705;-41
2021/03/03 10:25:28;;;;;;;23.77;17.87;;;;;;;;;;5132524;27;20684;-41
2021/03/03 10:27:59;;;;;;;23.10;18.37;;;;;;;;;;5107475;27;20181;-41
2021/03/03 10:30:25;;;;;;;21.40;17.67;;;;;;;;;;5132714;27;20581;-41
2021/03/03 10:32:53;;;;;;;20.53;17.03;;;;;;;;;;5132180;27;20576;-41
2021/03/03 10:35:18;;;;;;;24.23;17.10;;;;;;;;;;5132557;27;20567;-42
2021/03/03 10:37:43;;;;;;;20.37;17.50;;;;;;;;;;5130346;27;21256;-41
2021/03/03 10:40:13;;;;;;;24.27;19.02;;;;;;;;;;5131561;27;20343;-42
2021/03/03 10:42:38;;;;;;;23.00;17.00;;;;;;;;;;5131914;27;20187;-42
2021/03/03 10:45:03;;;;;;;23.07;16.67;;;;;;;;;;5131879;27;20581;-42
2021/03/03 10:47:39;;;;;;;19.77;17.30;;;;;;;;;;5132189;27;20184;-41
2021/03/03 10:50:06;;;;;;;20.40;17.33;;;;;;;;;;5129866;27;20172;-41
2021/03/03 10:52:31;;;;;;;24.73;18.90;;;;;;;;;;5132103;27;20629;-41
2021/03/03 10:54:56;;;;;;;22.80;17.27;;;;;;;;;;5131633;27;20590;-41
2021/03/03 10:57:21;;;;;;;22.50;18.60;;;;;;;;;;5128106;27;20205;-41
2021/03/03 10:59:46;;;;;;;18.88;15.77;;;;;;;;;;5110768;28;20651;-41
2021/03/03 11:02:21;;;;;;;23.67;18.40;;;;;;;;;;5111501;28;20177;-41
2021/03/03 11:04:47;;;;;;;22.03;17.00;;;;;;;;;;5111119;28;20181;-41
2021/03/03 11:07:13;;;;;;;22.20;18.33;;;;;;;;;;5111133;28;20576;-41
2021/03/03 11:09:38;;;;;;;22.27;17.90;;;;;;;;;;5111685;27;20591;-41
2021/03/03 11:12:04;;;;;;;22.57;18.10;;;;;;;;;;5110913;28;20681;-41
2021/03/03 11:14:30;;;;;;;25.17;18.43;;;;;;;;;;5110883;28;20178;-41
2021/03/03 11:16:56;;;;;;;21.70;18.07;;;;;;;;;;5111047;28;20201;-42
2021/03/03 11:19:21;;;;;;;21.40;17.60;;;;;;;;;;5111910;27;20595;-42
2021/03/03 11:21:47;;;;;;;23.27;16.87;;;;;;;;;;5111500;27;20579;-42
2021/03/03 11:24:12;;;;;;;22.07;18.53;;;;;;;;;;5129546;27;20169;-42
2021/03/03 11:26:38;;;;;;;25.57;18.77;;;;;;;;;;5110541;28;20193;-42
2021/03/03 11:29:04;;;;;;;23.90;19.60;;;;;;;;;;5109348;28;20187;-42
2021/03/03 11:31:29;;;;;;;22.10;18.10;;;;;;;;;;5110739;28;20597;-41
2021/03/03 11:33:54;;;;;;;24.37;19.30;;;;;;;;;;5110629;28;20684;-42
2021/03/03 11:36:19;;;;;;;22.60;18.57;;;;;;;;;;5110368;28;20201;-42
2021/03/03 11:38:45;;;;;;;19.40;16.67;;;;;;;;;;5111311;27;20668;-41
2021/03/03 11:41:10;;;;;;;20.50;17.27;;;;;;;;;;5112471;27;20197;-42
2021/03/03 11:43:35;;;;;;;20.05;17.05;;;;;;;;;;5130781;27;20633;-42
2021/03/03 11:46:00;;;;;;;22.60;17.80;;;;;;;;;;5131056;27;20227;-42
2021/03/03 11:48:25;;;;;;;23.73;18.43;;;;;;;;;;5130653;27;20181;-42
2021/03/03 11:50:50;;;;;;;23.05;18.98;;;;;;;;;;5130942;27;20180;-42
2021/03/03 11:53:16;;;;;;;24.45;17.38;;;;;;;;;;5128646;27;20194;-42
2021/03/03 11:55:41;;;;;;;24.07;18.37;;;;;;;;;;5130891;27;20201;-42
2021/03/03 11:58:06;;;;;;;22.27;17.90;;;;;;;;;;5129980;27;20666;-42
2021/03/03 12:00:31;;;;;;;22.33;18.38;;;;;;;;;;5130786;27;20176;-40
2021/03/03 12:02:56;;;;;;;24.07;18.20;;;;;;;;;;5122309;27;20196;-40
2021/03/03 12:05:23;;;;;;;21.50;17.75;;;;;;;;;;5109998;28;20633;-42
2021/03/03 12:07:48;;;;;;;22.50;17.73;;;;;;;;;;5109727;28;20179;-41
2021/03/03 12:10:13;;;;;;;21.57;17.27;;;;;;;;;;5109834;28;20640;-41
2021/03/03 12:12:39;;;;;;;23.63;18.60;;;;;;;;;;5115640;27;20187;-41
2021/03/03 12:15:04;;;;;;;21.63;18.50;;;;;;;;;;5130244;27;20211;-41
2021/03/03 12:17:29;;;;;;;20.93;18.20;;;;;;;;;;5130521;27;20246;-41
2021/03/03 12:19:55;;;;;;;27.30;20.03;;;;;;;;;;5129901;27;20171;-41
2021/03/03 12:22:20;;;;;;;21.50;18.37;;;;;;;;;;5129862;27;20169;-41
2021/03/03 12:24:45;;;;;;;23.63;18.67;;;;;;;;;;5109461;28;20649;-44
2021/03/03 12:27:10;;;;;;;25.40;19.07;;;;;;;;;;5111568;28;20586;-41
2021/03/03 12:29:35;;;;;;;23.57;18.37;;;;;;;;;;5130213;27;20176;-41
2021/03/03 12:32:01;;;;;;;23.33;19.03;;;;;;;;;;5130177;27;20171;-41
2021/03/03 12:34:26;;;;;;;25.08;19.00;;;;;;;;;;5128644;27;20169;-42
2021/03/03 12:36:51;;;;;;;21.42;18.05;;;;;;;;;;5128881;27;20201;-40
2021/03/03 12:39:16;;;;;;;26.53;18.40;;;;;;;;;;5129760;27;21889;-40
2021/03/03 12:41:41;;;;;;;23.13;18.07;;;;;;;;;;5129910;27;20219;-41
2021/03/03 12:44:07;;;;;;;24.15;20.20;;;;;;;;;;5111458;27;20204;-41
2021/03/03 12:46:32;;;;;;;24.10;18.90;;;;;;;;;;5109189;28;20229;-41
2021/03/03 12:48:57;;;;;;;26.80;19.80;;;;;;;;;;5109284;28;20212;-41
2021/03/03 12:51:22;;;;;;;26.00;20.80;;;;;;;;;;5109226;28;20185;-41
2021/03/03 12:53:48;;;;;;;25.50;20.63;;;;;;;;;;5110179;28;20176;-41
2021/03/03 12:56:13;;;;;;;22.95;18.92;;;;;;;;;;5109510;28;20208;-41
2021/03/03 12:58:38;;;;;;;23.73;18.83;;;;;;;;;;5123037;28;20199;-42
2021/03/03 13:01:03;;;;;;;22.60;19.57;;;;;;;;;;5129701;28;20530;-41
2021/03/03 13:03:28;;;;;;;22.77;18.98;;;;;;;;;;5128480;28;20172;-41
2021/03/03 13:05:56;;;;;;;23.23;19.67;;;;;;;;;;5129269;28;20179;-42
2021/03/03 13:08:21;;;;;;;23.00;19.40;;;;;;;;;;5129799;28;20182;-42
2021/03/03 13:10:46;;;;;;;24.20;20.40;;;;;;;;;;5129732;28;20581;-41
2021/03/03 13:13:11;;;;;;;21.20;18.65;;;;;;;;;;5128948;28;20176;-42
2021/03/03 13:15:36;;;;;;;24.00;19.25;;;;;;;;;;5129966;28;20167;-41
2021/03/03 13:18:02;;;;;;;28.13;20.55;;;;;;;;;;5129622;28;20189;-41
2021/03/03 13:20:27;;;;;;;23.10;19.30;;;;;;;;;;5129197;28;20283;-41
2021/03/03 13:22:52;;;;;;;25.73;20.10;;;;;;;;;;5119378;28;20193;-41
2021/03/03 13:25:17;;;;;;;24.67;19.90;;;;;;;;;;5129651;28;20168;-41
2021/03/03 13:27:42;;;;;;;24.48;20.52;;;;;;;;;;5129323;28;20238;-42
2021/03/03 13:30:11;;;;;;;24.90;21.43;;;;;;;;;;5129250;28;20637;-42
2021/03/03 13:32:37;;;;;;;27.23;21.90;;;;;;;;;;5129678;28;20179;-42
2021/03/03 13:35:03;;;;;;;24.70;19.70;;;;;;;;;;5127589;28;20949;-41
2021/03/03 13:37:28;;;;;;;26.20;20.73;;;;;;;;;;5129022;28;20229;-42
2021/03/03 13:39:53;;;;;;;25.85;20.90;;;;;;;;;;5129227;27;20558;-42
2021/03/03 13:42:18;;;;;;;22.10;19.33;;;;;;;;;;5124320;28;20230;-42
2021/03/03 13:44:43;;;;;;;24.67;20.27;;;;;;;;;;5109053;28;20175;-42
2021/03/03 13:47:08;;;;;;;25.43;20.27;;;;;;;;;;5108509;28;20581;-42
2021/03/03 13:49:35;;;;;;;24.13;19.90;;;;;;;;;;5108693;28;20210;-42
2021/03/03 13:52:00;;;;;;;26.43;20.97;;;;;;;;;;5109920;28;20181;-41
2021/03/03 13:54:25;;;;;;;23.80;20.00;;;;;;;;;;5113227;27;21264;-41
2021/03/03 13:56:50;;;;;;;23.10;18.70;;;;;;;;;;5120752;27;20208;-41
2021/03/03 13:59:15;;;;;;;25.80;19.95;;;;;;;;;;5132643;27;20164;-42
2021/03/03 14:01:40;;;;;;;25.77;21.67;;;;;;;;;;5133116;27;20171;-41
2021/03/03 14:04:06;;;;;;;24.48;19.73;;;;;;;;;;5132782;27;20181;-42
2021/03/03 14:06:31;;;;;;;25.47;21.10;;;;;;;;;;5131110;27;20179;-42
2021/03/03 14:08:56;;;;;;;27.77;21.27;;;;;;;;;;5132495;27;20177;-42
2021/03/03 14:11:22;;;;;;;26.65;21.17;;;;;;;;;;5132855;27;20179;-41